createdAt,value
2022-11-12T00:00:00.908Z,43.60
2022-11-12T00:00:21.984Z,38.30
2022-11-12T00:00:43.051Z,36.90
2022-11-12T00:01:04.084Z,39.90
2022-11-12T00:01:25.268Z,34.50
2022-11-12T00:01:46.323Z,34.10
2022-11-12T00:02:07.418Z,29.60
2022-11-12T00:02:28.449Z,38.70
2022-11-12T00:02:49.510Z,32.40
2022-11-12T00:03:10.551Z,31.80
2022-11-12T00:03:31.651Z,33.60
2022-11-12T00:03:52.654Z,38.70
2022-11-12T00:04:13.712Z,40.10
2022-11-12T00:04:34.780Z,35.30
2022-11-12T00:04:55.835Z,30.30
2022-11-12T00:05:16.899Z,31.10
2022-11-12T00:05:37.952Z,36.80
2022-11-12T00:05:59.021Z,36.50
2022-11-12T00:06:20.188Z,35.80
2022-11-12T00:06:41.257Z,32.60
2022-11-12T00:07:02.332Z,28.80
2022-11-12T00:07:23.405Z,31.20
2022-11-12T00:07:44.412Z,28.20
2022-11-12T00:08:05.472Z,32.20
2022-11-12T00:08:26.871Z,39.50
2022-11-12T00:08:48.125Z,43.50
2022-11-12T00:09:09.291Z,40.40
2022-11-12T00:09:30.367Z,44.50
2022-11-12T00:09:51.414Z,40.40
2022-11-12T00:10:12.546Z,43.70
2022-11-12T00:10:33.569Z,39.20
2022-11-12T00:10:54.617Z,38.70
2022-11-12T00:11:15.684Z,40.00
2022-11-12T00:11:36.749Z,40.00
2022-11-12T00:11:57.785Z,42.60
2022-11-12T00:12:18.856Z,39.50
2022-11-12T00:12:39.936Z,36.30
2022-11-12T00:13:00.987Z,36.30
2022-11-12T00:13:22.031Z,35.10
2022-11-12T00:13:43.077Z,41.30
2022-11-12T00:14:04.125Z,40.90
2022-11-12T00:14:25.270Z,48.10
2022-11-12T00:14:46.349Z,46.90
2022-11-12T00:15:07.385Z,36.70
2022-11-12T00:15:28.451Z,36.50
2022-11-12T00:15:49.481Z,38.10
2022-11-12T00:16:10.532Z,43.40
2022-11-12T00:16:31.602Z,46.20
2022-11-12T00:16:52.641Z,54.10
2022-11-12T00:17:13.747Z,53.90
2022-11-12T00:17:34.762Z,56.40
2022-11-12T00:17:55.824Z,52.40
2022-11-12T00:18:16.888Z,48.80
2022-11-12T00:18:37.961Z,52.80
2022-11-12T00:18:59.005Z,46.00
2022-11-12T00:19:20.048Z,44.20
2022-11-12T00:19:41.117Z,45.90
2022-11-12T00:20:02.171Z,44.60
2022-11-12T00:20:23.275Z,44.20
2022-11-12T00:20:44.294Z,45.40
2022-11-12T00:21:05.361Z,43.80
2022-11-12T00:21:26.647Z,42.90
2022-11-12T00:21:47.649Z,44.10
2022-11-12T00:22:08.701Z,45.30
2022-11-12T00:22:29.757Z,43.00
2022-11-12T00:22:50.884Z,40.50
2022-11-12T00:23:11.954Z,42.20
2022-11-12T00:23:32.985Z,33.50
2022-11-12T00:23:54.062Z,34.30
2022-11-12T00:24:15.096Z,40.50
2022-11-12T00:24:36.168Z,37.10
2022-11-12T00:24:57.216Z,36.50
2022-11-12T00:25:18.275Z,39.40
2022-11-12T00:25:39.430Z,40.70
2022-11-12T00:26:00.521Z,42.30
2022-11-12T00:26:21.542Z,45.20
2022-11-12T00:26:42.596Z,45.10
2022-11-12T00:27:03.664Z,42.10
2022-11-12T00:27:24.698Z,39.30
2022-11-12T00:27:45.751Z,40.60
2022-11-12T00:28:06.818Z,42.30
2022-11-12T00:28:29.532Z,37.20
2022-11-12T00:28:53.282Z,35.20
2022-11-12T00:29:14.343Z,31.80
2022-11-12T00:29:35.398Z,42.90
2022-11-12T00:29:56.507Z,40.50
2022-11-12T00:30:17.524Z,41.90
2022-11-12T00:30:38.577Z,45.40
2022-11-12T00:30:59.747Z,39.30
2022-11-12T00:31:20.812Z,35.50
2022-11-12T00:31:41.857Z,40.70
2022-11-12T00:32:02.906Z,37.90
2022-11-12T00:32:23.999Z,36.30
2022-11-12T00:32:45.020Z,34.60
2022-11-12T00:33:06.069Z,39.60
2022-11-12T00:33:27.113Z,47.10
2022-11-12T00:33:48.171Z,40.80
2022-11-12T00:34:09.229Z,40.30
2022-11-12T00:34:30.275Z,45.90
2022-11-12T00:34:51.381Z,36.10
2022-11-12T00:35:13.849Z,39.20
2022-11-12T00:35:35.335Z,47.50
2022-11-12T00:35:56.407Z,42.50
2022-11-12T00:36:17.478Z,43.20
2022-11-12T00:36:38.625Z,29.30
2022-11-12T00:36:59.641Z,28.80
2022-11-12T00:37:20.695Z,33.40
2022-11-12T00:37:41.741Z,42.40
2022-11-12T00:38:02.788Z,36.00
2022-11-12T00:38:24.293Z,34.40
2022-11-12T00:38:45.549Z,33.30
2022-11-12T00:39:06.594Z,39.00
2022-11-12T00:39:27.662Z,40.70
2022-11-12T00:39:48.697Z,41.20
2022-11-12T00:40:09.774Z,42.90
2022-11-12T00:40:30.834Z,42.80
2022-11-12T00:40:51.867Z,43.80
2022-11-12T00:41:12.965Z,36.00
2022-11-12T00:41:34.124Z,40.20
2022-11-12T00:41:55.177Z,47.30
2022-11-12T00:42:16.212Z,44.30
2022-11-12T00:42:37.272Z,43.30
2022-11-12T00:42:58.352Z,47.20
2022-11-12T00:43:19.391Z,39.40
2022-11-12T00:43:40.431Z,40.50
2022-11-12T00:44:01.490Z,45.60
2022-11-12T00:44:22.601Z,42.80
2022-11-12T00:44:43.612Z,44.30
2022-11-12T00:45:04.661Z,35.20
2022-11-12T00:45:25.717Z,31.00
2022-11-12T00:45:46.789Z,37.60
2022-11-12T00:46:07.827Z,42.20
2022-11-12T00:46:28.890Z,51.40
2022-11-12T00:46:50.089Z,58.40
2022-11-12T00:47:11.131Z,50.20
2022-11-12T00:47:32.179Z,55.70
2022-11-12T00:47:53.270Z,64.70
2022-11-12T00:48:14.295Z,60.30
2022-11-12T00:48:35.355Z,65.00
2022-11-12T00:48:56.427Z,52.50
2022-11-12T00:49:17.452Z,56.10
2022-11-12T00:49:38.514Z,51.90
2022-11-12T00:49:59.563Z,50.40
2022-11-12T00:50:20.608Z,55.50
2022-11-12T00:50:41.680Z,57.20
2022-11-12T00:51:02.728Z,55.80
2022-11-12T00:51:23.786Z,57.60
2022-11-12T00:51:44.954Z,50.80
2022-11-12T00:52:06.003Z,33.80
2022-11-12T00:52:27.011Z,31.40
2022-11-12T00:52:48.057Z,38.70
2022-11-12T00:53:09.131Z,45.00
2022-11-12T00:53:30.177Z,41.20
2022-11-12T00:53:51.259Z,33.50
2022-11-12T00:54:12.313Z,30.80
2022-11-12T00:54:33.365Z,50.70
2022-11-12T00:54:54.426Z,63.30
2022-11-12T00:55:15.498Z,47.60
2022-11-12T00:55:36.533Z,64.10
2022-11-12T00:55:57.588Z,72.20
2022-11-12T00:56:18.677Z,47.20
2022-11-12T00:56:39.735Z,38.10
2022-11-12T00:57:00.813Z,44.10
2022-11-12T00:57:21.886Z,54.80
2022-11-12T00:57:42.919Z,64.90
2022-11-12T00:58:03.960Z,69.00
2022-11-12T00:58:25.351Z,47.40
2022-11-12T00:58:46.642Z,37.60
2022-11-12T00:59:07.647Z,41.10
2022-11-12T00:59:28.703Z,42.40
2022-11-12T00:59:49.793Z,42.60
2022-11-12T01:00:10.815Z,34.50
2022-11-12T01:00:31.867Z,35.30
2022-11-12T01:00:52.971Z,44.90
2022-11-12T01:01:14.093Z,49.90
2022-11-12T01:01:35.220Z,44.20
2022-11-12T01:01:56.258Z,34.20
2022-11-12T01:02:17.323Z,34.40
2022-11-12T01:02:44.266Z,39.40
2022-11-12T01:03:05.335Z,48.80
2022-11-12T01:03:26.570Z,52.50
2022-11-12T01:03:47.616Z,54.10
2022-11-12T01:04:08.748Z,49.90
2022-11-12T01:04:29.786Z,50.80
2022-11-12T01:04:50.920Z,49.40
2022-11-12T01:05:11.946Z,42.30
2022-11-12T01:05:33.010Z,44.30
2022-11-12T01:05:54.062Z,43.30
2022-11-12T01:06:15.120Z,53.30
2022-11-12T01:06:36.247Z,53.60
2022-11-12T01:06:57.502Z,46.40
2022-11-12T01:07:18.599Z,45.90
2022-11-12T01:07:39.676Z,43.30
2022-11-12T01:08:00.736Z,45.50
2022-11-12T01:08:21.850Z,48.80
2022-11-12T01:08:42.977Z,53.20
2022-11-12T01:09:04.028Z,55.00
2022-11-12T01:09:25.076Z,45.00
2022-11-12T01:09:46.138Z,38.30
2022-11-12T01:10:07.198Z,35.70
2022-11-12T01:10:28.251Z,28.90
2022-11-12T01:10:49.307Z,30.00
2022-11-12T01:11:10.371Z,27.00
2022-11-12T01:11:31.417Z,27.80
2022-11-12T01:11:52.547Z,43.00
2022-11-12T01:12:13.569Z,56.90
2022-11-12T01:12:34.628Z,66.60
2022-11-12T01:12:55.687Z,59.20
2022-11-12T01:13:16.743Z,51.60
2022-11-12T01:13:42.957Z,44.80
2022-11-12T01:14:04.868Z,37.80
2022-11-12T01:14:25.911Z,35.70
2022-11-12T01:14:46.961Z,37.00
2022-11-12T01:15:07.999Z,36.20
2022-11-12T01:15:29.067Z,39.00
2022-11-12T01:15:50.160Z,43.50
2022-11-12T01:16:11.180Z,47.20
2022-11-12T01:16:32.227Z,47.90
2022-11-12T01:16:53.291Z,55.80
2022-11-12T01:17:14.328Z,45.70
2022-11-12T01:17:35.386Z,45.00
2022-11-12T01:17:56.446Z,36.60
2022-11-12T01:18:17.496Z,34.10
2022-11-12T01:18:38.528Z,40.00
2022-11-12T01:18:59.612Z,46.70
2022-11-12T01:19:20.696Z,49.10
2022-11-12T01:19:41.733Z,38.80
2022-11-12T01:20:02.785Z,39.10
2022-11-12T01:20:23.850Z,34.60
2022-11-12T01:20:44.905Z,44.30
2022-11-12T01:21:05.949Z,40.80
2022-11-12T01:21:26.986Z,44.60
2022-11-12T01:21:48.061Z,37.70
2022-11-12T01:22:09.218Z,36.30
2022-11-12T01:22:30.221Z,37.10
2022-11-12T01:22:51.270Z,41.00
2022-11-12T01:23:12.354Z,44.00
2022-11-12T01:23:33.390Z,41.10
2022-11-12T01:23:54.435Z,38.40
2022-11-12T01:24:15.488Z,32.50
2022-11-12T01:24:36.568Z,27.00
2022-11-12T01:24:57.625Z,29.80
2022-11-12T01:25:18.691Z,37.80
2022-11-12T01:25:39.772Z,33.60
2022-11-12T01:26:00.814Z,35.50
2022-11-12T01:26:21.912Z,33.80
2022-11-12T01:26:42.963Z,36.40
2022-11-12T01:27:04.016Z,43.70
2022-11-12T01:27:25.059Z,43.70
2022-11-12T01:27:46.151Z,34.00
2022-11-12T01:28:07.180Z,36.50
2022-11-12T01:28:28.558Z,41.30
2022-11-12T01:28:49.739Z,36.60
2022-11-12T01:29:10.804Z,40.90
2022-11-12T01:29:31.856Z,31.90
2022-11-12T01:29:53.018Z,38.90
2022-11-12T01:30:14.068Z,43.60
2022-11-12T01:30:35.138Z,40.90
2022-11-12T01:30:56.205Z,32.00
2022-11-12T01:31:17.233Z,34.20
2022-11-12T01:31:38.296Z,37.70
2022-11-12T01:31:59.356Z,33.30
2022-11-12T01:32:20.411Z,39.80
2022-11-12T01:32:41.469Z,31.90
2022-11-12T01:33:02.518Z,25.10
2022-11-12T01:33:23.585Z,37.30
2022-11-12T01:33:44.634Z,41.70
2022-11-12T01:34:05.805Z,47.60
2022-11-12T01:34:26.888Z,59.90
2022-11-12T01:34:47.940Z,57.90
2022-11-12T01:35:09.056Z,45.60
2022-11-12T01:35:30.071Z,39.30
2022-11-12T01:35:51.131Z,34.20
2022-11-12T01:36:12.224Z,37.40
2022-11-12T01:36:33.256Z,32.80
2022-11-12T01:36:54.315Z,39.60
2022-11-12T01:37:15.504Z,40.90
2022-11-12T01:37:36.505Z,43.90
2022-11-12T01:37:57.573Z,40.60
2022-11-12T01:38:18.724Z,35.10
2022-11-12T01:38:39.753Z,30.10
2022-11-12T01:39:00.827Z,29.60
2022-11-12T01:39:21.924Z,27.10
2022-11-12T01:39:42.966Z,38.40
2022-11-12T01:40:04.023Z,32.60
2022-11-12T01:40:25.081Z,26.10
2022-11-12T01:40:46.142Z,31.60
2022-11-12T01:41:07.243Z,27.30
2022-11-12T01:41:28.287Z,21.40
2022-11-12T01:41:49.336Z,21.80
2022-11-12T01:42:10.394Z,28.80
2022-11-12T01:42:31.486Z,36.30
2022-11-12T01:42:52.536Z,35.70
2022-11-12T01:43:13.583Z,44.60
2022-11-12T01:43:34.650Z,45.40
2022-11-12T01:43:55.736Z,45.40
2022-11-12T01:44:16.781Z,30.40
2022-11-12T01:44:37.833Z,37.10
2022-11-12T01:44:58.877Z,44.70
2022-11-12T01:45:19.945Z,37.20
2022-11-12T01:45:40.994Z,48.10
2022-11-12T01:46:02.043Z,48.20
2022-11-12T01:46:23.103Z,50.10
2022-11-12T01:46:44.169Z,38.90
2022-11-12T01:47:05.229Z,32.20
2022-11-12T01:47:26.345Z,27.00
2022-11-12T01:47:47.375Z,37.10
2022-11-12T01:48:08.409Z,53.20
2022-11-12T01:48:29.460Z,35.50
2022-11-12T01:48:50.500Z,32.70
2022-11-12T01:49:11.562Z,37.10
2022-11-12T01:49:32.620Z,39.00
2022-11-12T01:49:56.971Z,36.60
2022-11-12T01:50:18.369Z,39.20
2022-11-12T01:50:39.420Z,40.30
2022-11-12T01:51:00.518Z,43.40
2022-11-12T01:51:21.549Z,54.90
2022-11-12T01:51:42.595Z,50.60
2022-11-12T01:52:03.662Z,51.10
2022-11-12T01:52:24.819Z,53.30
2022-11-12T01:52:45.811Z,38.10
2022-11-12T01:53:06.892Z,41.80
2022-11-12T01:53:28.004Z,43.30
2022-11-12T01:53:49.162Z,40.30
2022-11-12T01:54:10.227Z,42.50
2022-11-12T01:54:31.298Z,48.00
2022-11-12T01:54:52.343Z,47.20
2022-11-12T01:55:13.386Z,40.20
2022-11-12T01:55:34.460Z,35.10
2022-11-12T01:55:55.518Z,50.00
2022-11-12T01:56:16.557Z,44.80
2022-11-12T01:56:41.736Z,46.30
2022-11-12T01:57:03.396Z,46.00
2022-11-12T01:57:24.445Z,32.70
2022-11-12T01:57:45.504Z,35.50
2022-11-12T01:58:06.549Z,50.30
2022-11-12T01:58:28.002Z,41.00
2022-11-12T01:58:49.432Z,38.60
2022-11-12T01:59:10.524Z,43.30
2022-11-12T01:59:31.575Z,42.80
2022-11-12T01:59:52.679Z,78.90
2022-11-12T02:00:13.723Z,66.30
2022-11-12T02:00:34.781Z,53.70
2022-11-12T02:00:55.882Z,34.80
2022-11-12T02:01:17.033Z,38.10
2022-11-12T02:01:38.108Z,32.20
2022-11-12T02:01:59.176Z,30.90
2022-11-12T02:02:20.224Z,41.80
2022-11-12T02:02:41.279Z,53.80
2022-11-12T02:03:02.322Z,63.30
2022-11-12T02:03:23.373Z,75.80
2022-11-12T02:03:44.415Z,63.00
2022-11-12T02:04:05.481Z,66.30
2022-11-12T02:04:26.656Z,38.50
2022-11-12T02:04:47.708Z,55.10
2022-11-12T02:05:08.752Z,70.30
2022-11-12T02:05:29.837Z,54.80
2022-11-12T02:05:50.851Z,53.30
2022-11-12T02:06:11.903Z,51.10
2022-11-12T02:06:32.982Z,58.60
2022-11-12T02:06:54.106Z,54.50
2022-11-12T02:07:15.210Z,60.30
2022-11-12T02:07:36.376Z,53.50
2022-11-12T02:07:57.378Z,53.50
2022-11-12T02:08:18.423Z,50.90
2022-11-12T02:08:39.500Z,54.00
2022-11-12T02:09:00.588Z,73.70
2022-11-12T02:09:21.631Z,62.50
2022-11-12T02:09:42.715Z,47.40
2022-11-12T02:10:03.742Z,45.40
2022-11-12T02:10:24.811Z,52.10
2022-11-12T02:10:45.889Z,70.10
2022-11-12T02:11:06.922Z,69.40
2022-11-12T02:11:27.995Z,44.50
2022-11-12T02:11:49.079Z,47.10
2022-11-12T02:12:10.120Z,39.70
2022-11-12T02:12:31.164Z,38.50
2022-11-12T02:12:52.240Z,38.70
2022-11-12T02:13:13.297Z,35.50
2022-11-12T02:13:34.357Z,39.50
2022-11-12T02:13:55.392Z,51.40
2022-11-12T02:14:16.453Z,63.00
2022-11-12T02:14:37.504Z,41.50
2022-11-12T02:14:58.692Z,46.90
2022-11-12T02:15:19.766Z,46.80
2022-11-12T02:15:40.808Z,56.30
2022-11-12T02:16:01.870Z,52.40
2022-11-12T02:16:22.955Z,49.00
2022-11-12T02:16:43.987Z,45.30
2022-11-12T02:17:05.151Z,64.20
2022-11-12T02:17:26.236Z,66.70
2022-11-12T02:17:47.275Z,77.60
2022-11-12T02:18:08.370Z,69.00
2022-11-12T02:18:29.501Z,75.60
2022-11-12T02:18:50.528Z,89.00
2022-11-12T02:19:11.597Z,70.60
2022-11-12T02:19:32.635Z,51.40
2022-11-12T02:19:53.731Z,72.10
2022-11-12T02:20:14.770Z,75.20
2022-11-12T02:20:35.830Z,80.70
2022-11-12T02:20:56.878Z,75.90
2022-11-12T02:21:17.919Z,84.90
2022-11-12T02:21:39.056Z,76.60
2022-11-12T02:22:00.079Z,48.90
2022-11-12T02:22:21.121Z,47.10
2022-11-12T02:22:42.310Z,51.70
2022-11-12T02:23:03.329Z,49.80
2022-11-12T02:23:24.363Z,56.30
2022-11-12T02:23:45.412Z,64.80
2022-11-12T02:24:06.491Z,64.90
2022-11-12T02:24:27.519Z,66.40
2022-11-12T02:24:48.604Z,52.30
2022-11-12T02:25:09.641Z,39.80
2022-11-12T02:25:30.840Z,48.10
2022-11-12T02:25:51.861Z,64.00
2022-11-12T02:26:12.928Z,60.60
2022-11-12T02:26:34.069Z,48.60
2022-11-12T02:26:55.126Z,33.60
2022-11-12T02:27:16.181Z,44.90
2022-11-12T02:27:37.245Z,55.60
2022-11-12T02:27:58.303Z,48.30
2022-11-12T02:28:19.360Z,41.50
2022-11-12T02:28:40.417Z,50.40
2022-11-12T02:29:01.467Z,42.20
2022-11-12T02:29:22.522Z,41.80
2022-11-12T02:29:43.562Z,50.40
2022-11-12T02:30:04.614Z,52.50
2022-11-12T02:30:25.724Z,52.20
2022-11-12T02:30:46.763Z,47.80
2022-11-12T02:31:07.870Z,38.50
2022-11-12T02:31:28.886Z,47.80
2022-11-12T02:31:50.122Z,51.60
2022-11-12T02:32:11.169Z,52.10
2022-11-12T02:32:32.216Z,48.10
2022-11-12T02:32:53.272Z,45.20
2022-11-12T02:33:14.392Z,47.10
2022-11-12T02:33:35.418Z,54.50
2022-11-12T02:33:56.472Z,54.70
2022-11-12T02:34:17.525Z,50.50
2022-11-12T02:34:38.561Z,39.40
2022-11-12T02:34:59.650Z,37.20
2022-11-12T02:35:20.735Z,38.50
2022-11-12T02:35:41.791Z,36.00
2022-11-12T02:36:02.858Z,45.10
2022-11-12T02:36:23.895Z,46.30
2022-11-12T02:36:44.987Z,52.30
2022-11-12T02:37:06.121Z,54.10
2022-11-12T02:37:27.167Z,58.10
2022-11-12T02:37:48.354Z,57.00
2022-11-12T02:38:09.367Z,52.30
2022-11-12T02:38:30.413Z,46.30
2022-11-12T02:38:51.463Z,43.50
2022-11-12T02:39:12.531Z,46.00
2022-11-12T02:39:33.589Z,45.90
2022-11-12T02:39:54.625Z,60.90
2022-11-12T02:40:15.684Z,48.50
2022-11-12T02:40:36.756Z,57.60
2022-11-12T02:40:57.794Z,55.00
2022-11-12T02:41:18.830Z,45.10
2022-11-12T02:41:39.883Z,47.10
2022-11-12T02:42:00.942Z,45.30
2022-11-12T02:42:22.047Z,48.60
2022-11-12T02:42:43.112Z,50.30
2022-11-12T02:43:04.168Z,57.20
2022-11-12T02:43:25.287Z,50.20
2022-11-12T02:43:46.307Z,45.70
2022-11-12T02:44:07.353Z,43.90
2022-11-12T02:44:28.399Z,51.70
2022-11-12T02:44:49.447Z,47.80
2022-11-12T02:45:10.510Z,41.00
2022-11-12T02:45:31.554Z,45.00
2022-11-12T02:45:52.621Z,53.60
2022-11-12T02:46:13.665Z,52.00
2022-11-12T02:46:34.708Z,35.00
2022-11-12T02:46:55.826Z,36.00
2022-11-12T02:47:16.836Z,48.30
2022-11-12T02:47:37.984Z,59.40
2022-11-12T02:47:59.064Z,62.10
2022-11-12T02:48:20.095Z,64.00
2022-11-12T02:48:41.163Z,61.00
2022-11-12T02:49:02.216Z,44.00
2022-11-12T02:49:23.269Z,34.70
2022-11-12T02:49:44.330Z,45.50
2022-11-12T02:50:05.362Z,56.70
2022-11-12T02:50:26.406Z,54.70
2022-11-12T02:50:47.484Z,35.10
2022-11-12T02:51:08.535Z,52.20
2022-11-12T02:51:29.578Z,56.60
2022-11-12T02:51:50.630Z,61.10
2022-11-12T02:52:11.672Z,47.60
2022-11-12T02:52:32.720Z,53.10
2022-11-12T02:52:53.919Z,53.10
2022-11-12T02:53:14.922Z,48.90
2022-11-12T02:53:35.983Z,44.10
2022-11-12T02:53:57.039Z,38.20
2022-11-12T02:54:18.096Z,43.60
2022-11-12T02:54:39.149Z,43.60
2022-11-12T02:55:00.254Z,48.40
2022-11-12T02:55:21.264Z,50.90
2022-11-12T02:55:42.321Z,47.20
2022-11-12T02:56:03.368Z,44.20
2022-11-12T02:56:24.417Z,44.60
2022-11-12T02:56:45.480Z,36.80
2022-11-12T02:57:06.527Z,36.80
2022-11-12T02:57:27.568Z,40.50
2022-11-12T02:57:48.815Z,31.30
2022-11-12T02:58:09.852Z,29.70
2022-11-12T02:58:30.899Z,42.70
2022-11-12T02:58:51.953Z,45.40
2022-11-12T02:59:13.026Z,46.40
2022-11-12T02:59:34.049Z,48.60
2022-11-12T02:59:55.099Z,47.00
2022-11-12T03:00:16.156Z,48.30
2022-11-12T03:00:37.264Z,48.20
2022-11-12T03:00:58.322Z,38.80
2022-11-12T03:01:19.395Z,36.60
2022-11-12T03:01:40.443Z,38.40
2022-11-12T03:02:01.479Z,38.70
2022-11-12T03:02:22.530Z,37.90
2022-11-12T03:02:43.627Z,41.10
2022-11-12T03:03:04.750Z,34.80
2022-11-12T03:03:25.799Z,31.30
2022-11-12T03:03:46.906Z,29.50
2022-11-12T03:04:07.955Z,38.00
2022-11-12T03:04:29.002Z,34.30
2022-11-12T03:04:50.066Z,33.50
2022-11-12T03:05:11.118Z,35.80
2022-11-12T03:05:32.182Z,41.40
2022-11-12T03:05:53.230Z,38.40
2022-11-12T03:06:14.295Z,43.80
2022-11-12T03:06:35.412Z,51.70
2022-11-12T03:06:56.506Z,58.50
2022-11-12T03:07:17.575Z,63.60
2022-11-12T03:07:38.594Z,63.90
2022-11-12T03:07:59.770Z,51.10
2022-11-12T03:08:20.868Z,49.20
2022-11-12T03:08:41.926Z,37.70
2022-11-12T03:09:03.051Z,35.70
2022-11-12T03:09:24.067Z,37.10
2022-11-12T03:09:45.122Z,39.20
2022-11-12T03:10:06.192Z,41.50
2022-11-12T03:10:27.289Z,33.60
2022-11-12T03:10:48.329Z,32.70
2022-11-12T03:11:09.376Z,31.70
2022-11-12T03:11:30.427Z,35.70
2022-11-12T03:11:51.466Z,34.10
2022-11-12T03:12:12.572Z,31.10
2022-11-12T03:12:33.628Z,43.00
2022-11-12T03:12:54.657Z,46.90
2022-11-12T03:13:15.704Z,35.30
2022-11-12T03:13:36.848Z,38.00
2022-11-12T03:13:57.874Z,36.70
2022-11-12T03:14:18.924Z,34.80
2022-11-12T03:14:39.972Z,34.80
2022-11-12T03:15:01.056Z,30.60
2022-11-12T03:15:22.071Z,36.50
2022-11-12T03:15:43.131Z,34.00
2022-11-12T03:16:04.197Z,35.70
2022-11-12T03:16:25.253Z,32.20
2022-11-12T03:16:46.298Z,32.30
2022-11-12T03:17:07.343Z,35.10
2022-11-12T03:17:28.427Z,37.70
2022-11-12T03:17:49.492Z,43.70
2022-11-12T03:18:10.546Z,38.70
2022-11-12T03:18:31.600Z,31.20
2022-11-12T03:18:52.687Z,48.00
2022-11-12T03:19:13.721Z,55.10
2022-11-12T03:19:34.756Z,49.60
2022-11-12T03:19:55.945Z,43.60
2022-11-12T03:20:17.054Z,45.60
2022-11-12T03:20:38.094Z,49.80
2022-11-12T03:20:59.147Z,55.60
2022-11-12T03:21:20.192Z,42.90
2022-11-12T03:21:41.328Z,45.00
2022-11-12T03:22:02.353Z,56.90
2022-11-12T03:22:23.413Z,49.50
2022-11-12T03:22:44.471Z,41.90
2022-11-12T03:23:05.628Z,41.20
2022-11-12T03:23:26.629Z,43.20
2022-11-12T03:23:47.670Z,40.60
2022-11-12T03:24:08.728Z,35.00
2022-11-12T03:24:29.796Z,31.10
2022-11-12T03:24:50.842Z,26.70
2022-11-12T03:25:11.986Z,25.90
2022-11-12T03:25:33.044Z,34.80
2022-11-12T03:25:54.117Z,30.90
2022-11-12T03:26:15.158Z,25.80
2022-11-12T03:26:36.253Z,31.50
2022-11-12T03:26:57.301Z,30.70
2022-11-12T03:27:18.333Z,30.80
2022-11-12T03:27:39.393Z,28.50
2022-11-12T03:28:00.507Z,26.60
2022-11-12T03:28:21.609Z,30.50
2022-11-12T03:28:42.649Z,38.30
2022-11-12T03:29:03.719Z,40.30
2022-11-12T03:29:24.773Z,33.00
2022-11-12T03:29:45.804Z,28.60
2022-11-12T03:30:06.859Z,33.40
2022-11-12T03:30:27.912Z,26.50
2022-11-12T03:30:48.963Z,27.60
2022-11-12T03:31:10.017Z,31.50
2022-11-12T03:31:31.067Z,24.60
2022-11-12T03:31:52.211Z,26.40
2022-11-12T03:32:13.260Z,26.80
2022-11-12T03:32:34.317Z,22.70
2022-11-12T03:32:55.360Z,28.20
2022-11-12T03:33:16.682Z,29.50
2022-11-12T03:33:37.746Z,22.80
2022-11-12T03:33:58.793Z,23.60
2022-11-12T03:34:19.856Z,30.20
2022-11-12T03:34:40.909Z,29.40
2022-11-12T03:35:01.950Z,23.40
2022-11-12T03:35:23.034Z,23.10
2022-11-12T03:35:44.091Z,25.00
2022-11-12T03:36:05.190Z,27.70
2022-11-12T03:36:26.237Z,30.00
2022-11-12T03:36:47.286Z,29.80
2022-11-12T03:37:08.337Z,28.00
2022-11-12T03:37:29.387Z,29.70
2022-11-12T03:37:50.520Z,24.90
2022-11-12T03:38:11.654Z,30.40
2022-11-12T03:38:32.698Z,33.50
2022-11-12T03:38:53.730Z,28.60
2022-11-12T03:39:14.788Z,26.00
2022-11-12T03:39:35.829Z,30.40
2022-11-12T03:39:56.954Z,31.50
2022-11-12T03:40:17.962Z,30.50
2022-11-12T03:40:39.009Z,28.90
2022-11-12T03:41:00.069Z,28.30
2022-11-12T03:41:21.103Z,27.40
2022-11-12T03:41:42.165Z,24.00
2022-11-12T03:42:03.253Z,30.10
2022-11-12T03:42:24.280Z,29.90
2022-11-12T03:42:45.336Z,33.10
2022-11-12T03:43:06.374Z,30.50
2022-11-12T03:43:27.529Z,29.50
2022-11-12T03:43:48.581Z,27.50
2022-11-12T03:44:09.662Z,26.50
2022-11-12T03:44:30.696Z,20.60
2022-11-12T03:44:51.739Z,24.20
2022-11-12T03:45:12.789Z,28.90
2022-11-12T03:45:33.934Z,30.60
2022-11-12T03:45:54.939Z,35.00
2022-11-12T03:46:16.002Z,28.20
2022-11-12T03:46:41.535Z,22.40
2022-11-12T03:47:04.087Z,25.40
2022-11-12T03:47:25.148Z,21.40
2022-11-12T03:47:46.178Z,25.90
2022-11-12T03:48:07.214Z,23.70
2022-11-12T03:48:28.644Z,23.20
2022-11-12T03:48:49.921Z,29.10
2022-11-12T03:49:10.973Z,29.00
2022-11-12T03:49:32.051Z,28.20
2022-11-12T03:49:53.100Z,24.20
2022-11-12T03:50:14.297Z,24.70
2022-11-12T03:50:35.322Z,26.10
2022-11-12T03:50:56.365Z,24.50
2022-11-12T03:51:17.434Z,26.80
2022-11-12T03:51:38.468Z,27.40
2022-11-12T03:51:59.516Z,25.70
2022-11-12T03:52:20.592Z,27.80
2022-11-12T03:52:41.639Z,33.20
2022-11-12T03:53:02.756Z,50.10
2022-11-12T03:53:23.898Z,38.40
2022-11-12T03:53:44.910Z,31.50
2022-11-12T03:54:05.979Z,22.40
2022-11-12T03:54:27.031Z,21.60
2022-11-12T03:54:48.082Z,28.10
2022-11-12T03:55:09.139Z,31.40
2022-11-12T03:55:30.278Z,32.70
2022-11-12T03:55:51.320Z,32.00
2022-11-12T03:56:12.378Z,27.40
2022-11-12T03:56:33.420Z,31.10
2022-11-12T03:56:54.465Z,27.60
2022-11-12T03:57:15.541Z,26.00
2022-11-12T03:57:36.589Z,27.60
2022-11-12T03:57:57.788Z,30.90
2022-11-12T03:58:19.040Z,41.50
2022-11-12T03:58:40.094Z,31.20
2022-11-12T03:59:01.262Z,26.90
2022-11-12T03:59:22.347Z,29.30
2022-11-12T03:59:43.397Z,28.90
2022-11-12T04:00:04.445Z,24.40
2022-11-12T04:00:25.488Z,25.40
2022-11-12T04:00:46.600Z,26.60
2022-11-12T04:01:07.714Z,27.10
2022-11-12T04:01:28.780Z,28.50
2022-11-12T04:01:49.824Z,34.80
2022-11-12T04:02:10.903Z,28.40
2022-11-12T04:02:31.935Z,30.70
2022-11-12T04:02:53.044Z,35.40
2022-11-12T04:03:14.075Z,31.30
2022-11-12T04:03:35.113Z,34.30
2022-11-12T04:03:56.170Z,32.40
2022-11-12T04:04:17.232Z,32.60
2022-11-12T04:04:38.290Z,33.50
2022-11-12T04:04:59.341Z,27.00
2022-11-12T04:05:20.391Z,35.40
2022-11-12T04:05:41.444Z,40.20
2022-11-12T04:06:02.498Z,33.90
2022-11-12T04:06:23.580Z,29.70
2022-11-12T04:06:44.692Z,33.90
2022-11-12T04:07:05.751Z,27.00
2022-11-12T04:07:26.781Z,26.30
2022-11-12T04:07:47.860Z,29.30
2022-11-12T04:08:08.904Z,30.50
2022-11-12T04:08:30.072Z,32.30
2022-11-12T04:08:51.066Z,27.10
2022-11-12T04:09:12.160Z,28.10
2022-11-12T04:09:33.316Z,30.50
2022-11-12T04:09:54.357Z,36.30
2022-11-12T04:10:15.432Z,36.20
2022-11-12T04:10:36.478Z,33.40
2022-11-12T04:10:57.519Z,32.80
2022-11-12T04:11:18.569Z,35.50
2022-11-12T04:11:39.642Z,31.00
2022-11-12T04:12:00.678Z,34.10
2022-11-12T04:12:21.738Z,27.10
2022-11-12T04:12:42.790Z,26.80
2022-11-12T04:13:03.844Z,31.30
2022-11-12T04:13:24.882Z,28.90
2022-11-12T04:13:45.935Z,25.80
2022-11-12T04:14:06.992Z,28.10
2022-11-12T04:14:28.033Z,27.50
2022-11-12T04:14:49.210Z,31.60
2022-11-12T04:15:10.242Z,29.90
2022-11-12T04:15:31.378Z,25.90
2022-11-12T04:15:52.463Z,26.30
2022-11-12T04:16:13.506Z,29.70
2022-11-12T04:16:34.546Z,32.20
2022-11-12T04:16:55.613Z,36.10
2022-11-12T04:17:16.658Z,33.20
2022-11-12T04:17:37.706Z,33.50
2022-11-12T04:17:58.770Z,32.80
2022-11-12T04:18:19.813Z,32.80
2022-11-12T04:18:40.872Z,33.10
2022-11-12T04:19:01.994Z,31.20
2022-11-12T04:19:23.032Z,29.80
2022-11-12T04:19:44.090Z,35.10
2022-11-12T04:20:05.149Z,35.10
2022-11-12T04:20:26.223Z,32.40
2022-11-12T04:20:47.273Z,31.10
2022-11-12T04:21:08.343Z,31.20
2022-11-12T04:21:29.397Z,35.10
2022-11-12T04:21:50.440Z,33.90
2022-11-12T04:22:11.495Z,36.70
2022-11-12T04:22:32.534Z,31.00
2022-11-12T04:22:53.625Z,24.80
2022-11-12T04:23:14.654Z,25.40
2022-11-12T04:23:35.825Z,28.00
2022-11-12T04:23:56.809Z,31.20
2022-11-12T04:24:17.863Z,36.30
2022-11-12T04:24:38.919Z,36.90
2022-11-12T04:24:59.999Z,46.40
2022-11-12T04:25:21.030Z,45.40
2022-11-12T04:25:42.101Z,44.20
2022-11-12T04:26:03.140Z,45.10
2022-11-12T04:26:24.199Z,33.40
2022-11-12T04:26:45.243Z,34.00
2022-11-12T04:27:06.299Z,33.60
2022-11-12T04:27:27.351Z,33.80
2022-11-12T04:27:48.431Z,35.80
2022-11-12T04:28:09.468Z,28.30
2022-11-12T04:28:30.511Z,25.60
2022-11-12T04:28:51.569Z,30.40
2022-11-12T04:29:12.608Z,35.50
2022-11-12T04:29:37.422Z,35.30
2022-11-12T04:29:58.691Z,31.00
2022-11-12T04:30:19.753Z,30.80
2022-11-12T04:30:40.808Z,35.90
2022-11-12T04:31:01.870Z,33.30
2022-11-12T04:31:22.934Z,31.40
2022-11-12T04:31:43.984Z,28.60